sensor_id;sensor_type;location;lat;lon;timestamp;pressure;altitude;pressure_sealevel;temperature;humidity
62980;BME280;49075;53.988;27.678;2023-07-24T00:00:08;980.2;;;15;66.1
62980;BME280;49075;53.988;27.678;2023-07-24T00:05:22;980.2;;;15;65.8
62980;BME280;49075;53.988;27.678;2023-07-24T00:10:16;980.1;;;15.1;66
62980;BME280;49075;53.988;27.678;2023-07-24T00:15:08;980.1;;;15.1;65.6
62980;BME280;49075;53.988;27.678;2023-07-24T00:20:08;980;;;15.2;65.6
62980;BME280;49075;53.988;27.678;2023-07-24T00:25:38;980;;;15.2;65.2
62980;BME280;49075;53.988;27.678;2023-07-24T00:30:24;979.9;;;15.2;65.3
62980;BME280;49075;53.988;27.678;2023-07-24T00:35:08;979.9;;;15.2;65.2
62980;BME280;49075;53.988;27.678;2023-07-24T00:40:52;979.8;;;15.2;65.4
62980;BME280;49075;53.988;27.678;2023-07-24T00:45:50;979.8;;;15.2;65.3
62980;BME280;49075;53.988;27.678;2023-07-24T00:51:00;979.8;;;15.1;65.6
62980;BME280;49075;53.988;27.678;2023-07-24T00:55:32;979.7;;;15.1;65.3
62980;BME280;49075;53.988;27.678;2023-07-24T01:00:08;979.6;;;15.2;65.4
62980;BME280;49075;53.988;27.678;2023-07-24T01:05:32;979.5;;;15.2;65.1
62980;BME280;49075;53.988;27.678;2023-07-24T01:10:08;979.3;;;15.1;65.2
62980;BME280;49075;53.988;27.678;2023-07-24T01:15:09;979.3;;;15.1;65.3
62980;BME280;49075;53.988;27.678;2023-07-24T01:20:08;979.3;;;15.1;65.1
62980;BME280;49075;53.988;27.678;2023-07-24T01:25:23;979.3;;;15.1;65.1
62980;BME280;49075;53.988;27.678;2023-07-24T01:30:52;979.5;;;15.1;65.1
62980;BME280;49075;53.988;27.678;2023-07-24T01:35:24;979.5;;;15.1;65.4
62980;BME280;49075;53.988;27.678;2023-07-24T01:40:20;979.5;;;15.2;65.4
62980;BME280;49075;53.988;27.678;2023-07-24T01:45:20;979.5;;;15.2;65.3
62980;BME280;49075;53.988;27.678;2023-07-24T01:50:08;979.6;;;15.4;65
62980;BME280;49075;53.988;27.678;2023-07-24T01:55:08;979.6;;;15.5;65.1
62980;BME280;49075;53.988;27.678;2023-07-24T02:00:08;979.6;;;15.6;64.9
62980;BME280;49075;53.988;27.678;2023-07-24T02:05:25;979.6;;;15.7;65.1
62980;BME280;49075;53.988;27.678;2023-07-24T02:10:36;979.7;;;15.8;64.8
62980;BME280;49075;53.988;27.678;2023-07-24T02:15:20;979.7;;;15.8;64.4
62980;BME280;49075;53.988;27.678;2023-07-24T02:20:08;979.7;;;15.8;64.3
62980;BME280;49075;53.988;27.678;2023-07-24T02:25:08;979.8;;;15.7;64.9
62980;BME280;49075;53.988;27.678;2023-07-24T02:30:32;979.7;;;15.7;64.8
62980;BME280;49075;53.988;27.678;2023-07-24T02:35:42;979.7;;;15.7;65
62980;BME280;49075;53.988;27.678;2023-07-24T02:40:24;979.8;;;15.7;64.9
62980;BME280;49075;53.988;27.678;2023-07-24T02:45:08;979.7;;;15.5;65.8
62980;BME280;49075;53.988;27.678;2023-07-24T02:50:20;979.6;;;15.3;66.9
62980;BME280;49075;53.988;27.678;2023-07-24T02:55:16;979.5;;;15;68.4
62980;BME280;49075;53.988;27.678;2023-07-24T03:00:20;979.5;;;14.7;68.9
62980;BME280;49075;53.988;27.678;2023-07-24T03:05:52;979.4;;;14.3;71.5
62980;BME280;49075;53.988;27.678;2023-07-24T03:10:08;979.3;;;14.3;71.3
62980;BME280;49075;53.988;27.678;2023-07-24T03:15:24;979.3;;;14.1;72.4
62980;BME280;49075;53.988;27.678;2023-07-24T03:20:09;979.4;;;14.1;71.8
62980;BME280;49075;53.988;27.678;2023-07-24T03:25:20;979.4;;;14.2;72.3
62980;BME280;49075;53.988;27.678;2023-07-24T03:30:32;979.4;;;14.2;72
62980;BME280;49075;53.988;27.678;2023-07-24T03:35:16;979.3;;;14.2;72.8
62980;BME280;49075;53.988;27.678;2023-07-24T03:40:20;979.3;;;14.2;72.5
62980;BME280;49075;53.988;27.678;2023-07-24T03:45:20;979.3;;;14.2;73.2
62980;BME280;49075;53.988;27.678;2023-07-24T03:50:08;979.3;;;14.3;72.8
62980;BME280;49075;53.988;27.678;2023-07-24T03:55:08;979.3;;;14.4;73.4
62980;BME280;49075;53.988;27.678;2023-07-24T04:00:08;979.1;;;14.4;73.7
62980;BME280;49075;53.988;27.678;2023-07-24T04:05:08;979.1;;;14.4;73.9
62980;BME280;49075;53.988;27.678;2023-07-24T04:10:52;979.2;;;14.6;73.1
62980;BME280;49075;53.988;27.678;2023-07-24T04:15:08;979.2;;;14.8;73.3
62980;BME280;49075;53.988;27.678;2023-07-24T04:20:08;979.1;;;14.9;73.2
62980;BME280;49075;53.988;27.678;2023-07-24T04:25:20;979;;;14.8;73.7
62980;BME280;49075;53.988;27.678;2023-07-24T04:30:09;979;;;14.6;73.5
62980;BME280;49075;53.988;27.678;2023-07-24T04:35:16;979;;;14.6;73
62980;BME280;49075;53.988;27.678;2023-07-24T04:40:08;978.9;;;14.6;72.8
62980;BME280;49075;53.988;27.678;2023-07-24T04:45:08;978.8;;;14.8;72.6
62980;BME280;49075;53.988;27.678;2023-07-24T04:50:08;978.9;;;15.1;72.2
62980;BME280;49075;53.988;27.678;2023-07-24T04:55:24;979;;;15.5;71.9
62980;BME280;49075;53.988;27.678;2023-07-24T05:00:09;979;;;15.8;71.4
62980;BME280;49075;53.988;27.678;2023-07-24T05:05:20;978.9;;;16.1;70.8
62980;BME280;49075;53.988;27.678;2023-07-24T05:10:34;978.9;;;16.5;70
62980;BME280;49075;53.988;27.678;2023-07-24T05:15:22;978.8;;;16.7;69.3
62980;BME280;49075;53.988;27.678;2023-07-24T05:20:48;978.7;;;16.7;68.7
62980;BME280;49075;53.988;27.678;2023-07-24T05:25:55;978.7;;;16.7;68.5
62980;BME280;49075;53.988;27.678;2023-07-24T05:30:08;978.7;;;16.8;68.6
62980;BME280;49075;53.988;27.678;2023-07-24T05:35:28;978.8;;;17;68.2
62980;BME280;49075;53.988;27.678;2023-07-24T05:40:08;978.8;;;17.1;68.5
62980;BME280;49075;53.988;27.678;2023-07-24T05:45:09;978.8;;;17.3;67.5
62980;BME280;49075;53.988;27.678;2023-07-24T05:50:36;978.7;;;17.3;66.9
62980;BME280;49075;53.988;27.678;2023-07-24T05:55:18;978.7;;;17.2;66.6
62980;BME280;49075;53.988;27.678;2023-07-24T06:00:24;978.7;;;16.9;66.6
62980;BME280;49075;53.988;27.678;2023-07-24T06:05:08;978.6;;;17;66.8
62980;BME280;49075;53.988;27.678;2023-07-24T06:10:20;978.6;;;17;67.3
62980;BME280;49075;53.988;27.678;2023-07-24T06:15:16;978.6;;;17;67.5
62980;BME280;49075;53.988;27.678;2023-07-24T06:20:08;978.6;;;17.2;67.2
62980;BME280;49075;53.988;27.678;2023-07-24T06:26:00;978.6;;;17.5;66.3
62980;BME280;49075;53.988;27.678;2023-07-24T06:30:33;978.6;;;18;65.1
62980;BME280;49075;53.988;27.678;2023-07-24T06:35:20;978.5;;;18.5;63.3
62980;BME280;49075;53.988;27.678;2023-07-24T06:40:32;978.5;;;18.8;62.5
62980;BME280;49075;53.988;27.678;2023-07-24T06:45:20;978.5;;;18.7;62.3
62980;BME280;49075;53.988;27.678;2023-07-24T06:50:26;978.6;;;18.6;62.2
62980;BME280;49075;53.988;27.678;2023-07-24T06:55:32;978.5;;;18.9;61.3
62980;BME280;49075;53.988;27.678;2023-07-24T07:00:26;978.6;;;19.9;59.6
62980;BME280;49075;53.988;27.678;2023-07-24T07:05:31;978.5;;;20.9;56
62980;BME280;49075;53.988;27.678;2023-07-24T07:10:20;978.6;;;21.1;54.3
62980;BME280;49075;53.988;27.678;2023-07-24T07:15:08;978.6;;;20.7;54.2
62980;BME280;49075;53.988;27.678;2023-07-24T07:20:08;978.7;;;20.2;55.2
62980;BME280;49075;53.988;27.678;2023-07-24T07:25:08;978.7;;;19.9;55.7
62980;BME280;49075;53.988;27.678;2023-07-24T07:30:20;978.7;;;19.9;55.4
62980;BME280;49075;53.988;27.678;2023-07-24T07:35:08;978.6;;;21;53.5
62980;BME280;49075;53.988;27.678;2023-07-24T07:40:24;978.5;;;23.1;50
62980;BME280;49075;53.988;27.678;2023-07-24T07:45:42;978.5;;;23.9;47.3
62980;BME280;49075;53.988;27.678;2023-07-24T07:50:20;978.4;;;24.2;46.4
62980;BME280;49075;53.988;27.678;2023-07-24T07:55:08;978.3;;;24.7;44.7
62980;BME280;49075;53.988;27.678;2023-07-24T08:00:22;978.3;;;26.3;42.9
62980;BME280;49075;53.988;27.678;2023-07-24T08:05:22;978.3;;;27.5;39.8
62980;BME280;49075;53.988;27.678;2023-07-24T08:10:20;978.3;;;28;38.9
62980;BME280;49075;53.988;27.678;2023-07-24T08:15:37;978.3;;;27.7;37.5
62980;BME280;49075;53.988;27.678;2023-07-24T08:20:34;978.3;;;27.8;37.8
62980;BME280;49075;53.988;27.678;2023-07-24T08:25:08;978.3;;;27.6;37
62980;BME280;49075;53.988;27.678;2023-07-24T08:30:24;978.2;;;27.7;37.1
62980;BME280;49075;53.988;27.678;2023-07-24T08:35:36;978.2;;;27.4;36
62980;BME280;49075;53.988;27.678;2023-07-24T08:40:16;978.1;;;27.3;36.1
62980;BME280;49075;53.988;27.678;2023-07-24T08:45:10;978.1;;;27.5;36.1
62980;BME280;49075;53.988;27.678;2023-07-24T08:50:20;978.1;;;28.1;35.7
62980;BME280;49075;53.988;27.678;2023-07-24T08:55:20;978;;;28.5;34.4
62980;BME280;49075;53.988;27.678;2023-07-24T09:00:09;978;;;27.3;35.5
62980;BME280;49075;53.988;27.678;2023-07-24T09:05:08;978;;;26.3;36.5
62980;BME280;49075;53.988;27.678;2023-07-24T09:10:23;978;;;26.1;36.9
62980;BME280;49075;53.988;27.678;2023-07-24T09:15:09;977.9;;;25.6;37.4
62980;BME280;49075;53.988;27.678;2023-07-24T09:20:37;977.9;;;25;37.8
62980;BME280;49075;53.988;27.678;2023-07-24T09:25:08;977.8;;;24.8;37.9
62980;BME280;49075;53.988;27.678;2023-07-24T09:30:11;977.8;;;24.5;37.9
62980;BME280;49075;53.988;27.678;2023-07-24T09:35:16;977.7;;;24.1;38.4
62980;BME280;49075;53.988;27.678;2023-07-24T09:40:09;977.7;;;23.7;38.9
62980;BME280;49075;53.988;27.678;2023-07-24T09:45:09;977.7;;;23.1;40.8
62980;BME280;49075;53.988;27.678;2023-07-24T09:50:08;977.7;;;22.5;42.6
62980;BME280;49075;53.988;27.678;2023-07-24T09:55:10;977.7;;;21.7;44.5
62980;BME280;49075;53.988;27.678;2023-07-24T10:00:28;977.7;;;21.5;45.9
62980;BME280;49075;53.988;27.678;2023-07-24T10:05:08;977.7;;;21.5;45.7
62980;BME280;49075;53.988;27.678;2023-07-24T10:10:16;977.7;;;21.8;45.5
62980;BME280;49075;53.988;27.678;2023-07-24T10:15:30;977.6;;;22.2;45.3
62980;BME280;49075;53.988;27.678;2023-07-24T10:20:09;977.6;;;23.3;43.8
62980;BME280;49075;53.988;27.678;2023-07-24T10:25:39;977.5;;;23.8;42.5
62980;BME280;49075;53.988;27.678;2023-07-24T10:30:08;977.5;;;24.7;41
62980;BME280;49075;53.988;27.678;2023-07-24T10:35:08;977.5;;;25.1;39.6
62980;BME280;49075;53.988;27.678;2023-07-24T10:40:45;977.4;;;26.4;38.2
62980;BME280;49075;53.988;27.678;2023-07-24T10:45:22;977.4;;;25.9;38.6
62980;BME280;49075;53.988;27.678;2023-07-24T10:50:22;977.4;;;25.1;40.3
62980;BME280;49075;53.988;27.678;2023-07-24T10:55:08;977.3;;;24.5;41.4
62980;BME280;49075;53.988;27.678;2023-07-24T11:00:25;977.3;;;24.5;41.8
62980;BME280;49075;53.988;27.678;2023-07-24T11:05:20;977.3;;;23.9;43.2
62980;BME280;49075;53.988;27.678;2023-07-24T11:10:28;977.3;;;23.5;44.1
62980;BME280;49075;53.988;27.678;2023-07-24T11:15:23;977.2;;;23.1;45.2
62980;BME280;49075;53.988;27.678;2023-07-24T11:20:09;977.2;;;23.3;44.8
62980;BME280;49075;53.988;27.678;2023-07-24T11:25:09;977.1;;;23.6;44.6
62980;BME280;49075;53.988;27.678;2023-07-24T11:30:09;977.1;;;23.8;44.2
62980;BME280;49075;53.988;27.678;2023-07-24T11:35:08;977;;;23.9;44.4
62980;BME280;49075;53.988;27.678;2023-07-24T11:40:37;977.1;;;23.6;45.5
62980;BME280;49075;53.988;27.678;2023-07-24T11:45:09;977;;;23.8;45.4
62980;BME280;49075;53.988;27.678;2023-07-24T11:50:09;976.9;;;23.8;45.3
62980;BME280;49075;53.988;27.678;2023-07-24T11:55:29;976.8;;;23.7;45.8
62980;BME280;49075;53.988;27.678;2023-07-24T12:00:38;976.7;;;23.5;46.4
62980;BME280;49075;53.988;27.678;2023-07-24T12:05:09;976.6;;;23.5;46.8
62980;BME280;49075;53.988;27.678;2023-07-24T12:10:08;976.6;;;23.5;47
62980;BME280;49075;53.988;27.678;2023-07-24T12:15:09;976.5;;;23.2;47.5
62980;BME280;49075;53.988;27.678;2023-07-24T12:20:16;976.5;;;23.1;47.7
62980;BME280;49075;53.988;27.678;2023-07-24T12:25:22;976.5;;;23.2;47.7
62980;BME280;49075;53.988;27.678;2023-07-24T12:30:09;976.4;;;23.2;47.4
62980;BME280;49075;53.988;27.678;2023-07-24T12:35:22;976.4;;;22.8;48
62980;BME280;49075;53.988;27.678;2023-07-24T12:40:09;976.3;;;22.8;47.7
62980;BME280;49075;53.988;27.678;2023-07-24T12:45:36;976.5;;;22.7;47.8
62980;BME280;49075;53.988;27.678;2023-07-24T12:50:30;977;;;21.7;52.6
62980;BME280;49075;53.988;27.678;2023-07-24T12:55:08;977;;;16.9;65.6
62980;BME280;49075;53.988;27.678;2023-07-24T13:00:22;977.2;;;15.7;68.6
62980;BME280;49075;53.988;27.678;2023-07-24T13:05:08;976.9;;;15.4;73.2
62980;BME280;49075;53.988;27.678;2023-07-24T13:10:22;976.7;;;15.4;72.9
62980;BME280;49075;53.988;27.678;2023-07-24T13:45:40;976.5;;;15.9;77.4
62980;BME280;49075;53.988;27.678;2023-07-24T13:50:38;976.4;;;15.9;78.7
62980;BME280;49075;53.988;27.678;2023-07-24T13:55:08;976.3;;;16;79.1
62980;BME280;49075;53.988;27.678;2023-07-24T14:00:48;976.3;;;16.1;78.2
62980;BME280;49075;53.988;27.678;2023-07-24T14:05:08;976.2;;;16.3;77.7
62980;BME280;49075;53.988;27.678;2023-07-24T14:10:49;976.2;;;16.7;77.6
62980;BME280;49075;53.988;27.678;2023-07-24T14:15:09;976.2;;;17.1;77.6
62980;BME280;49075;53.988;27.678;2023-07-24T14:20:48;976.2;;;17.4;77.8
62980;BME280;49075;53.988;27.678;2023-07-24T14:25:22;976.1;;;17.8;78.6
62980;BME280;49075;53.988;27.678;2023-07-24T14:30:24;976.2;;;18.2;78
62980;BME280;49075;53.988;27.678;2023-07-24T14:35:08;976.3;;;18.3;77.2
62980;BME280;49075;53.988;27.678;2023-07-24T14:40:09;976.3;;;18.4;77
62980;BME280;49075;53.988;27.678;2023-07-24T14:45:09;976.3;;;18.4;76.4
62980;BME280;49075;53.988;27.678;2023-07-24T14:50:22;976.3;;;18.4;77.5
62980;BME280;49075;53.988;27.678;2023-07-24T14:55:08;976.2;;;18.5;77.9
62980;BME280;49075;53.988;27.678;2023-07-24T15:00:09;976.2;;;18.6;78.3
62980;BME280;49075;53.988;27.678;2023-07-24T15:05:16;976.2;;;18.6;78.3
62980;BME280;49075;53.988;27.678;2023-07-24T15:10:09;976.1;;;18.7;78.5
62980;BME280;49075;53.988;27.678;2023-07-24T15:15:22;976;;;18.8;78.3
62980;BME280;49075;53.988;27.678;2023-07-24T15:20:24;976;;;18.8;77.3
62980;BME280;49075;53.988;27.678;2023-07-24T15:25:39;976;;;19;77.6
62980;BME280;49075;53.988;27.678;2023-07-24T15:30:09;975.9;;;19.3;76.8
62980;BME280;49075;53.988;27.678;2023-07-24T15:35:30;975.8;;;19.8;76.6
62980;BME280;49075;53.988;27.678;2023-07-24T15:40:09;975.8;;;20.1;75.6
62980;BME280;49075;53.988;27.678;2023-07-24T15:45:09;975.8;;;20.1;75.4
62980;BME280;49075;53.988;27.678;2023-07-24T15:50:09;975.8;;;20.1;74.1
62980;BME280;49075;53.988;27.678;2023-07-24T15:55:49;975.9;;;20.2;74.4
62980;BME280;49075;53.988;27.678;2023-07-24T16:00:09;975.9;;;20.4;73.9
62980;BME280;49075;53.988;27.678;2023-07-24T16:05:24;975.9;;;20.5;72.9
62980;BME280;49075;53.988;27.678;2023-07-24T16:10:08;975.9;;;20.6;72.8
62980;BME280;49075;53.988;27.678;2023-07-24T16:15:17;975.9;;;20.5;71.9
62980;BME280;49075;53.988;27.678;2023-07-24T16:20:23;975.9;;;20.5;72.2
62980;BME280;49075;53.988;27.678;2023-07-24T16:25:09;975.9;;;20.4;71.6
62980;BME280;49075;53.988;27.678;2023-07-24T16:30:39;975.9;;;20.3;71.4
62980;BME280;49075;53.988;27.678;2023-07-24T16:35:31;975.8;;;20.2;71.5
62980;BME280;49075;53.988;27.678;2023-07-24T16:40:23;975.8;;;20.2;70.2
62980;BME280;49075;53.988;27.678;2023-07-24T16:45:09;975.8;;;20.2;70.1
62980;BME280;49075;53.988;27.678;2023-07-24T16:50:23;975.8;;;20.1;68.9
62980;BME280;49075;53.988;27.678;2023-07-24T16:55:09;975.8;;;20;67.4
62980;BME280;49075;53.988;27.678;2023-07-24T17:00:23;975.8;;;19.9;66.9
62980;BME280;49075;53.988;27.678;2023-07-24T17:05:25;975.8;;;19.9;65.9
62980;BME280;49075;53.988;27.678;2023-07-24T17:10:09;975.8;;;19.8;66.2
62980;BME280;49075;53.988;27.678;2023-07-24T17:15:51;975.8;;;19.7;66.5
62980;BME280;49075;53.988;27.678;2023-07-24T17:20:33;975.9;;;19.7;67
62980;BME280;49075;53.988;27.678;2023-07-24T17:25:23;975.8;;;19.6;66.1
62980;BME280;49075;53.988;27.678;2023-07-24T17:30:23;975.8;;;19.6;67
62980;BME280;49075;53.988;27.678;2023-07-24T17:35:23;975.8;;;19.6;66.8
62980;BME280;49075;53.988;27.678;2023-07-24T17:40:23;975.8;;;19.5;66.8
62980;BME280;49075;53.988;27.678;2023-07-24T17:45:23;975.8;;;19.4;67.4
62980;BME280;49075;53.988;27.678;2023-07-24T17:50:09;975.9;;;19.3;67.9
62980;BME280;49075;53.988;27.678;2023-07-24T17:55:17;975.9;;;19.2;68.4
62980;BME280;49075;53.988;27.678;2023-07-24T18:00:09;975.9;;;19;68.8
62980;BME280;49075;53.988;27.678;2023-07-24T18:05:37;975.9;;;18.8;69.2
62980;BME280;49075;53.988;27.678;2023-07-24T18:10:09;976;;;18.6;69.3
62980;BME280;49075;53.988;27.678;2023-07-24T18:15:09;976;;;18.4;70
62980;BME280;49075;53.988;27.678;2023-07-24T18:20:23;976;;;18.2;70.6
62980;BME280;49075;53.988;27.678;2023-07-24T18:25:09;976;;;18;71.5
62980;BME280;49075;53.988;27.678;2023-07-24T18:30:31;976.2;;;17.8;71.5
62980;BME280;49075;53.988;27.678;2023-07-24T18:35:39;976.2;;;17.7;72.1
62980;BME280;49075;53.988;27.678;2023-07-24T18:40:39;976.2;;;17.5;72
62980;BME280;49075;53.988;27.678;2023-07-24T18:45:33;976.2;;;17.5;72.9
62980;BME280;49075;53.988;27.678;2023-07-24T18:50:17;976.2;;;17.4;72.6
62980;BME280;49075;53.988;27.678;2023-07-24T18:55:17;976.2;;;17.3;73
62980;BME280;49075;53.988;27.678;2023-07-24T19:00:23;976.2;;;17.2;73.2
62980;BME280;49075;53.988;27.678;2023-07-24T19:05:23;976.2;;;17.1;74.1
62980;BME280;49075;53.988;27.678;2023-07-24T19:10:23;976.2;;;17;74.3
62980;BME280;49075;53.988;27.678;2023-07-24T19:15:39;976.2;;;17;74.7
62980;BME280;49075;53.988;27.678;2023-07-24T19:20:37;976.2;;;16.9;75
62980;BME280;49075;53.988;27.678;2023-07-24T19:25:09;976.1;;;16.9;75.3
62980;BME280;49075;53.988;27.678;2023-07-24T19:30:09;976.1;;;16.9;75.3
62980;BME280;49075;53.988;27.678;2023-07-24T19:35:23;976.1;;;16.9;75.3
62980;BME280;49075;53.988;27.678;2023-07-24T19:40:23;976.1;;;16.8;75.3
62980;BME280;49075;53.988;27.678;2023-07-24T19:45:09;976.1;;;16.7;75.9
62980;BME280;49075;53.988;27.678;2023-07-24T19:50:09;976.1;;;16.5;76.2
62980;BME280;49075;53.988;27.678;2023-07-24T19:55:23;976.1;;;16.4;76.3
62980;BME280;49075;53.988;27.678;2023-07-24T20:00:47;976.1;;;16.3;75.8
62980;BME280;49075;53.988;27.678;2023-07-24T20:05:09;976.1;;;16.4;75.7
62980;BME280;49075;53.988;27.678;2023-07-24T20:10:37;976.2;;;16.4;75.3
62980;BME280;49075;53.988;27.678;2023-07-24T20:15:31;976.2;;;16.5;75.3
62980;BME280;49075;53.988;27.678;2023-07-24T20:20:25;976.2;;;16.5;75.2
62980;BME280;49075;53.988;27.678;2023-07-24T20:25:09;976.1;;;16.6;74.7
62980;BME280;49075;53.988;27.678;2023-07-24T20:30:09;976.2;;;16.6;75.2
62980;BME280;49075;53.988;27.678;2023-07-24T20:35:33;976.1;;;16.6;76
62980;BME280;49075;53.988;27.678;2023-07-24T20:40:09;976.2;;;16.5;76
62980;BME280;49075;53.988;27.678;2023-07-24T20:45:23;976.1;;;16.6;75.3
62980;BME280;49075;53.988;27.678;2023-07-24T20:50:23;976.1;;;16.7;75.4
62980;BME280;49075;53.988;27.678;2023-07-24T20:55:39;976.1;;;16.7;75.3
62980;BME280;49075;53.988;27.678;2023-07-24T21:00:41;976.1;;;16.7;74.6
62980;BME280;49075;53.988;27.678;2023-07-24T21:05:39;976;;;16.6;74.1
62980;BME280;49075;53.988;27.678;2023-07-24T21:10:09;975.9;;;16.6;73.4
62980;BME280;49075;53.988;27.678;2023-07-24T21:15:09;975.9;;;16.6;73
62980;BME280;49075;53.988;27.678;2023-07-24T21:20:23;975.9;;;16.6;72.8
62980;BME280;49075;53.988;27.678;2023-07-24T21:25:19;975.9;;;16.7;72.8
62980;BME280;49075;53.988;27.678;2023-07-24T21:30:09;975.9;;;16.7;73.2
62980;BME280;49075;53.988;27.678;2023-07-24T21:35:23;975.8;;;16.6;72.1
62980;BME280;49075;53.988;27.678;2023-07-24T21:40:29;975.8;;;16.6;71.5
62980;BME280;49075;53.988;27.678;2023-07-24T21:45:09;975.7;;;16.7;70.8
62980;BME280;49075;53.988;27.678;2023-07-24T21:50:25;975.5;;;16.8;71
62980;BME280;49075;53.988;27.678;2023-07-24T21:55:09;975.5;;;16.8;70.7
62980;BME280;49075;53.988;27.678;2023-07-24T22:00:41;975.5;;;16.9;70.8
62980;BME280;49075;53.988;27.678;2023-07-24T22:05:24;975.4;;;16.8;70.8
62980;BME280;49075;53.988;27.678;2023-07-24T22:15:32;975.5;;;16.5;71.4
62980;BME280;49075;53.988;27.678;2023-07-24T22:20:09;975.5;;;16.3;71.5
62980;BME280;49075;53.988;27.678;2023-07-24T22:25:09;975.6;;;16.3;71.8
62980;BME280;49075;53.988;27.678;2023-07-24T22:30:15;975.6;;;16.2;72
62980;BME280;49075;53.988;27.678;2023-07-24T22:45:38;975.6;;;16.1;72.4
62980;BME280;49075;53.988;27.678;2023-07-24T22:50:09;975.4;;;16;72.5
62980;BME280;49075;53.988;27.678;2023-07-24T22:55:24;975.3;;;16.3;71.8
62980;BME280;49075;53.988;27.678;2023-07-24T23:00:40;975.2;;;16.2;72.1
62980;BME280;49075;53.988;27.678;2023-07-24T23:35:09;974.9;;;15.7;73.3
62980;BME280;49075;53.988;27.678;2023-07-24T23:40:40;974.9;;;15.6;73.4
62980;BME280;49075;53.988;27.678;2023-07-24T23:45:37;974.8;;;15.5;73.5
62980;BME280;49075;53.988;27.678;2023-07-24T23:50:17;974.8;;;15.5;73.5
62980;BME280;49075;53.988;27.678;2023-07-24T23:55:23;974.7;;;15.5;73.5
